sensor_id;sensor_type;location;lat;lon;timestamp;P1;durP1;ratioP1;P2;durP2;ratioP2
64865;SDS011;51347;41.994;21.402;2022-09-03T00:02:35;3.15;;;2.63;;
64865;SDS011;51347;41.994;21.402;2022-09-03T00:07:54;4.97;;;2.83;;
64865;SDS011;51347;41.994;21.402;2022-09-03T00:10:28;3.35;;;2.70;;
64865;SDS011;51347;41.994;21.402;2022-09-03T00:12:56;3.25;;;2.70;;
64865;SDS011;51347;41.994;21.402;2022-09-03T00:15:45;3.92;;;3.08;;
64865;SDS011;51347;41.994;21.402;2022-09-03T00:18:15;3.97;;;2.88;;
64865;SDS011;51347;41.994;21.402;2022-09-03T00:20:43;4.38;;;3.35;;
64865;SDS011;51347;41.994;21.402;2022-09-03T00:23:15;4.22;;;2.83;;
64865;SDS011;51347;41.994;21.402;2022-09-03T00:28:27;4.35;;;3.22;;
64865;SDS011;51347;41.994;21.402;2022-09-03T00:34:02;4.05;;;3.65;;
64865;SDS011;51347;41.994;21.402;2022-09-03T00:36:40;3.83;;;3.10;;
64865;SDS011;51347;41.994;21.402;2022-09-03T00:39:14;3.78;;;3.20;;
64865;SDS011;51347;41.994;21.402;2022-09-03T00:42:02;6.07;;;2.70;;
64865;SDS011;51347;41.994;21.402;2022-09-03T00:50:18;4.75;;;3.25;;
64865;SDS011;51347;41.994;21.402;2022-09-03T00:53:10;3.42;;;2.40;;
64865;SDS011;51347;41.994;21.402;2022-09-03T00:58:14;2.85;;;2.60;;
64865;SDS011;51347;41.994;21.402;2022-09-03T01:00:45;3.00;;;2.70;;
64865;SDS011;51347;41.994;21.402;2022-09-03T01:03:17;2.88;;;2.55;;
64865;SDS011;51347;41.994;21.402;2022-09-03T01:11:21;4.63;;;2.97;;
64865;SDS011;51347;41.994;21.402;2022-09-03T01:32:01;3.65;;;2.38;;
64865;SDS011;51347;41.994;21.402;2022-09-03T01:34:31;3.70;;;2.80;;
64865;SDS011;51347;41.994;21.402;2022-09-03T01:37:19;4.20;;;3.10;;
64865;SDS011;51347;41.994;21.402;2022-09-03T01:47:21;3.83;;;2.90;;
64865;SDS011;51347;41.994;21.402;2022-09-03T01:52:42;3.05;;;2.53;;
64865;SDS011;51347;41.994;21.402;2022-09-03T01:57:48;3.17;;;2.70;;
64865;SDS011;51347;41.994;21.402;2022-09-03T02:00:17;3.40;;;2.70;;
64865;SDS011;51347;41.994;21.402;2022-09-03T02:02:45;5.53;;;2.85;;
64865;SDS011;51347;41.994;21.402;2022-09-03T02:05:16;3.38;;;2.65;;
64865;SDS011;51347;41.994;21.402;2022-09-03T02:07:43;4.40;;;2.60;;
64865;SDS011;51347;41.994;21.402;2022-09-03T02:10:13;3.65;;;2.35;;
64865;SDS011;51347;41.994;21.402;2022-09-03T02:12:40;5.53;;;2.67;;
64865;SDS011;51347;41.994;21.402;2022-09-03T02:15:14;6.82;;;3.30;;
64865;SDS011;51347;41.994;21.402;2022-09-03T02:17:40;4.13;;;3.00;;
64865;SDS011;51347;41.994;21.402;2022-09-03T02:20:07;3.28;;;2.72;;
64865;SDS011;51347;41.994;21.402;2022-09-03T02:22:36;3.42;;;2.90;;
64865;SDS011;51347;41.994;21.402;2022-09-03T02:25:05;3.33;;;2.80;;
64865;SDS011;51347;41.994;21.402;2022-09-03T02:27:31;3.13;;;2.55;;
64865;SDS011;51347;41.994;21.402;2022-09-03T02:29:58;3.33;;;2.70;;
64865;SDS011;51347;41.994;21.402;2022-09-03T02:32:24;4.20;;;2.95;;
64865;SDS011;51347;41.994;21.402;2022-09-03T02:34:50;5.25;;;3.17;;
64865;SDS011;51347;41.994;21.402;2022-09-03T02:37:16;3.88;;;2.88;;
64865;SDS011;51347;41.994;21.402;2022-09-03T02:39:42;4.18;;;2.53;;
64865;SDS011;51347;41.994;21.402;2022-09-03T02:42:08;2.60;;;2.40;;
64865;SDS011;51347;41.994;21.402;2022-09-03T02:44:35;2.97;;;2.67;;
64865;SDS011;51347;41.994;21.402;2022-09-03T02:47:03;2.67;;;2.42;;
64865;SDS011;51347;41.994;21.402;2022-09-03T02:49:28;4.00;;;3.08;;
64865;SDS011;51347;41.994;21.402;2022-09-03T02:51:57;3.85;;;2.63;;
64865;SDS011;51347;41.994;21.402;2022-09-03T02:54:30;3.70;;;3.38;;
64865;SDS011;51347;41.994;21.402;2022-09-03T02:56:57;4.97;;;3.20;;
64865;SDS011;51347;41.994;21.402;2022-09-03T02:59:23;3.10;;;2.50;;
64865;SDS011;51347;41.994;21.402;2022-09-03T03:01:52;3.70;;;3.08;;
64865;SDS011;51347;41.994;21.402;2022-09-03T03:04:18;5.25;;;2.80;;
64865;SDS011;51347;41.994;21.402;2022-09-03T03:06:44;4.47;;;2.60;;
64865;SDS011;51347;41.994;21.402;2022-09-03T03:09:09;3.95;;;2.80;;
64865;SDS011;51347;41.994;21.402;2022-09-03T03:11:34;4.50;;;3.05;;
64865;SDS011;51347;41.994;21.402;2022-09-03T03:14:07;3.28;;;2.80;;
64865;SDS011;51347;41.994;21.402;2022-09-03T03:16:32;5.32;;;3.08;;
64865;SDS011;51347;41.994;21.402;2022-09-03T03:18:57;4.53;;;2.90;;
64865;SDS011;51347;41.994;21.402;2022-09-03T03:21:24;4.13;;;3.22;;
64865;SDS011;51347;41.994;21.402;2022-09-03T03:23:49;3.33;;;3.03;;
64865;SDS011;51347;41.994;21.402;2022-09-03T03:26:15;5.07;;;3.78;;
64865;SDS011;51347;41.994;21.402;2022-09-03T03:28:45;4.82;;;3.33;;
64865;SDS011;51347;41.994;21.402;2022-09-03T03:31:11;3.58;;;2.80;;
64865;SDS011;51347;41.994;21.402;2022-09-03T03:33:37;5.78;;;3.55;;
64865;SDS011;51347;41.994;21.402;2022-09-03T03:36:13;3.35;;;2.88;;
64865;SDS011;51347;41.994;21.402;2022-09-03T03:38:39;4.43;;;3.88;;
64865;SDS011;51347;41.994;21.402;2022-09-03T03:41:18;4.15;;;3.58;;
64865;SDS011;51347;41.994;21.402;2022-09-03T03:43:43;4.13;;;3.35;;
64865;SDS011;51347;41.994;21.402;2022-09-03T03:46:09;5.93;;;3.60;;
64865;SDS011;51347;41.994;21.402;2022-09-03T03:48:35;5.28;;;3.60;;
64865;SDS011;51347;41.994;21.402;2022-09-03T03:51:04;4.32;;;3.42;;
64865;SDS011;51347;41.994;21.402;2022-09-03T03:53:33;5.38;;;3.70;;
64865;SDS011;51347;41.994;21.402;2022-09-03T03:55:59;4.47;;;3.40;;
64865;SDS011;51347;41.994;21.402;2022-09-03T03:58:26;5.15;;;3.33;;
64865;SDS011;51347;41.994;21.402;2022-09-03T04:00:53;7.53;;;5.00;;
64865;SDS011;51347;41.994;21.402;2022-09-03T04:03:18;4.35;;;3.42;;
64865;SDS011;51347;41.994;21.402;2022-09-03T04:05:56;7.30;;;5.32;;
64865;SDS011;51347;41.994;21.402;2022-09-03T04:08:25;6.38;;;4.15;;
64865;SDS011;51347;41.994;21.402;2022-09-03T04:10:52;5.07;;;3.72;;
64865;SDS011;51347;41.994;21.402;2022-09-03T04:13:17;5.78;;;3.78;;
64865;SDS011;51347;41.994;21.402;2022-09-03T04:15:44;4.97;;;3.78;;
64865;SDS011;51347;41.994;21.402;2022-09-03T04:18:10;5.32;;;3.88;;
64865;SDS011;51347;41.994;21.402;2022-09-03T04:20:35;6.80;;;3.92;;
64865;SDS011;51347;41.994;21.402;2022-09-03T04:23:23;7.18;;;4.15;;
64865;SDS011;51347;41.994;21.402;2022-09-03T04:25:52;6.20;;;4.00;;
64865;SDS011;51347;41.994;21.402;2022-09-03T04:28:18;5.40;;;3.50;;
64865;SDS011;51347;41.994;21.402;2022-09-03T04:30:46;4.55;;;4.15;;
64865;SDS011;51347;41.994;21.402;2022-09-03T04:33:12;6.57;;;4.65;;
64865;SDS011;51347;41.994;21.402;2022-09-03T04:35:39;7.82;;;5.10;;
64865;SDS011;51347;41.994;21.402;2022-09-03T04:38:06;5.85;;;4.60;;
64865;SDS011;51347;41.994;21.402;2022-09-03T04:40:32;5.82;;;4.25;;
64865;SDS011;51347;41.994;21.402;2022-09-03T04:42:58;11.32;;;4.80;;
64865;SDS011;51347;41.994;21.402;2022-09-03T04:45:25;6.22;;;4.55;;
64865;SDS011;51347;41.994;21.402;2022-09-03T04:48:02;6.07;;;4.55;;
64865;SDS011;51347;41.994;21.402;2022-09-03T04:50:28;5.20;;;4.63;;
64865;SDS011;51347;41.994;21.402;2022-09-03T04:52:54;4.97;;;4.13;;
64865;SDS011;51347;41.994;21.402;2022-09-03T04:55:22;4.85;;;3.80;;
64865;SDS011;51347;41.994;21.402;2022-09-03T04:57:48;5.93;;;3.50;;
64865;SDS011;51347;41.994;21.402;2022-09-03T05:00:14;6.25;;;4.68;;
64865;SDS011;51347;41.994;21.402;2022-09-03T05:02:42;4.07;;;3.67;;
64865;SDS011;51347;41.994;21.402;2022-09-03T05:05:09;5.43;;;4.18;;
64865;SDS011;51347;41.994;21.402;2022-09-03T05:07:37;5.68;;;4.13;;
64865;SDS011;51347;41.994;21.402;2022-09-03T05:10:08;6.07;;;3.85;;
64865;SDS011;51347;41.994;21.402;2022-09-03T05:12:36;4.32;;;3.83;;
64865;SDS011;51347;41.994;21.402;2022-09-03T05:15:02;5.97;;;4.22;;
64865;SDS011;51347;41.994;21.402;2022-09-03T05:17:29;4.47;;;3.97;;
64865;SDS011;51347;41.994;21.402;2022-09-03T05:19:56;4.50;;;3.78;;
64865;SDS011;51347;41.994;21.402;2022-09-03T05:22:22;7.25;;;4.07;;
64865;SDS011;51347;41.994;21.402;2022-09-03T05:24:47;5.78;;;4.53;;
64865;SDS011;51347;41.994;21.402;2022-09-03T05:27:13;10.57;;;4.35;;
64865;SDS011;51347;41.994;21.402;2022-09-03T05:29:45;7.75;;;4.50;;
64865;SDS011;51347;41.994;21.402;2022-09-03T05:32:10;5.60;;;4.20;;
64865;SDS011;51347;41.994;21.402;2022-09-03T05:34:39;7.78;;;4.55;;
64865;SDS011;51347;41.994;21.402;2022-09-03T05:37:07;8.55;;;4.38;;
64865;SDS011;51347;41.994;21.402;2022-09-03T05:39:37;4.53;;;3.85;;
64865;SDS011;51347;41.994;21.402;2022-09-03T05:42:06;4.53;;;3.92;;
64865;SDS011;51347;41.994;21.402;2022-09-03T05:44:33;7.25;;;5.30;;
64865;SDS011;51347;41.994;21.402;2022-09-03T05:46:58;7.60;;;4.75;;
64865;SDS011;51347;41.994;21.402;2022-09-03T05:49:24;7.30;;;4.60;;
64865;SDS011;51347;41.994;21.402;2022-09-03T05:51:50;6.80;;;4.53;;
64865;SDS011;51347;41.994;21.402;2022-09-03T05:54:15;6.75;;;4.43;;
64865;SDS011;51347;41.994;21.402;2022-09-03T05:56:40;6.22;;;5.13;;
64865;SDS011;51347;41.994;21.402;2022-09-03T05:59:07;6.00;;;4.70;;
64865;SDS011;51347;41.994;21.402;2022-09-03T06:01:35;8.23;;;5.10;;
64865;SDS011;51347;41.994;21.402;2022-09-03T06:04:07;8.57;;;4.90;;
64865;SDS011;51347;41.994;21.402;2022-09-03T06:06:34;6.57;;;5.20;;
64865;SDS011;51347;41.994;21.402;2022-09-03T06:09:02;7.88;;;4.93;;
64865;SDS011;51347;41.994;21.402;2022-09-03T06:11:30;5.97;;;5.18;;
64865;SDS011;51347;41.994;21.402;2022-09-03T06:13:57;7.03;;;4.78;;
64865;SDS011;51347;41.994;21.402;2022-09-03T06:16:25;9.40;;;5.53;;
64865;SDS011;51347;41.994;21.402;2022-09-03T06:18:52;8.13;;;5.22;;
64865;SDS011;51347;41.994;21.402;2022-09-03T06:21:20;5.90;;;5.13;;
64865;SDS011;51347;41.994;21.402;2022-09-03T06:23:49;8.55;;;6.15;;
64865;SDS011;51347;41.994;21.402;2022-09-03T06:26:15;6.25;;;5.15;;
64865;SDS011;51347;41.994;21.402;2022-09-03T06:28:41;15.15;;;5.60;;
64865;SDS011;51347;41.994;21.402;2022-09-03T06:31:09;9.38;;;5.35;;
64865;SDS011;51347;41.994;21.402;2022-09-03T06:33:36;10.40;;;5.68;;
64865;SDS011;51347;41.994;21.402;2022-09-03T06:36:04;10.18;;;4.78;;
64865;SDS011;51347;41.994;21.402;2022-09-03T06:38:30;7.53;;;4.63;;
64865;SDS011;51347;41.994;21.402;2022-09-03T06:40:59;8.38;;;4.85;;
64865;SDS011;51347;41.994;21.402;2022-09-03T06:43:29;7.40;;;5.40;;
64865;SDS011;51347;41.994;21.402;2022-09-03T06:45:57;9.27;;;5.70;;
64865;SDS011;51347;41.994;21.402;2022-09-03T06:48:23;8.50;;;4.65;;
64865;SDS011;51347;41.994;21.402;2022-09-03T06:50:52;7.60;;;5.10;;
64865;SDS011;51347;41.994;21.402;2022-09-03T06:53:17;7.82;;;6.00;;
64865;SDS011;51347;41.994;21.402;2022-09-03T06:55:51;14.13;;;6.00;;
64865;SDS011;51347;41.994;21.402;2022-09-03T06:58:16;7.75;;;5.22;;
64865;SDS011;51347;41.994;21.402;2022-09-03T07:00:42;8.27;;;4.65;;
64865;SDS011;51347;41.994;21.402;2022-09-03T07:03:09;8.65;;;5.07;;
64865;SDS011;51347;41.994;21.402;2022-09-03T07:05:35;10.15;;;4.22;;
64865;SDS011;51347;41.994;21.402;2022-09-03T07:08:02;7.57;;;4.15;;
64865;SDS011;51347;41.994;21.402;2022-09-03T07:10:27;7.75;;;4.57;;
64865;SDS011;51347;41.994;21.402;2022-09-03T07:12:55;12.73;;;5.50;;
64865;SDS011;51347;41.994;21.402;2022-09-03T07:15:22;8.43;;;5.32;;
64865;SDS011;51347;41.994;21.402;2022-09-03T07:17:48;12.93;;;5.43;;
64865;SDS011;51347;41.994;21.402;2022-09-03T07:20:21;7.45;;;4.93;;
64865;SDS011;51347;41.994;21.402;2022-09-03T07:22:48;14.50;;;5.75;;
64865;SDS011;51347;41.994;21.402;2022-09-03T07:25:15;10.57;;;6.45;;
64865;SDS011;51347;41.994;21.402;2022-09-03T07:27:40;8.57;;;5.35;;
64865;SDS011;51347;41.994;21.402;2022-09-03T07:30:07;10.98;;;5.95;;
64865;SDS011;51347;41.994;21.402;2022-09-03T07:32:35;10.85;;;5.22;;
64865;SDS011;51347;41.994;21.402;2022-09-03T07:35:04;11.45;;;5.22;;
64865;SDS011;51347;41.994;21.402;2022-09-03T07:37:30;11.75;;;5.65;;
64865;SDS011;51347;41.994;21.402;2022-09-03T07:40:04;11.93;;;5.80;;
64865;SDS011;51347;41.994;21.402;2022-09-03T07:42:34;10.68;;;5.78;;
64865;SDS011;51347;41.994;21.402;2022-09-03T07:45:00;8.93;;;5.45;;
64865;SDS011;51347;41.994;21.402;2022-09-03T07:47:29;9.45;;;5.90;;
64865;SDS011;51347;41.994;21.402;2022-09-03T07:49:55;7.43;;;5.13;;
64865;SDS011;51347;41.994;21.402;2022-09-03T07:52:20;9.38;;;5.20;;
64865;SDS011;51347;41.994;21.402;2022-09-03T07:54:47;12.57;;;5.85;;
64865;SDS011;51347;41.994;21.402;2022-09-03T07:57:12;8.75;;;5.50;;
64865;SDS011;51347;41.994;21.402;2022-09-03T07:59:37;10.48;;;5.55;;
64865;SDS011;51347;41.994;21.402;2022-09-03T08:02:02;10.18;;;6.13;;
64865;SDS011;51347;41.994;21.402;2022-09-03T08:04:30;11.27;;;5.43;;
64865;SDS011;51347;41.994;21.402;2022-09-03T08:06:57;12.43;;;5.63;;
64865;SDS011;51347;41.994;21.402;2022-09-03T08:09:24;7.85;;;4.43;;
64865;SDS011;51347;41.994;21.402;2022-09-03T08:11:49;8.85;;;5.80;;
64865;SDS011;51347;41.994;21.402;2022-09-03T08:14:15;9.27;;;5.20;;
64865;SDS011;51347;41.994;21.402;2022-09-03T08:16:41;8.43;;;5.95;;
64865;SDS011;51347;41.994;21.402;2022-09-03T08:19:06;11.10;;;6.28;;
64865;SDS011;51347;41.994;21.402;2022-09-03T08:21:49;10.38;;;5.90;;
64865;SDS011;51347;41.994;21.402;2022-09-03T08:24:15;9.50;;;5.43;;
64865;SDS011;51347;41.994;21.402;2022-09-03T08:26:44;14.35;;;5.57;;
64865;SDS011;51347;41.994;21.402;2022-09-03T08:29:11;9.13;;;5.05;;
64865;SDS011;51347;41.994;21.402;2022-09-03T08:31:37;6.43;;;4.60;;
64865;SDS011;51347;41.994;21.402;2022-09-03T08:34:04;8.43;;;4.70;;
64865;SDS011;51347;41.994;21.402;2022-09-03T08:36:37;8.23;;;4.60;;
64865;SDS011;51347;41.994;21.402;2022-09-03T08:42:27;9.43;;;5.28;;
64865;SDS011;51347;41.994;21.402;2022-09-03T08:44:57;5.25;;;4.15;;
64865;SDS011;51347;41.994;21.402;2022-09-03T08:47:37;9.65;;;5.20;;
64865;SDS011;51347;41.994;21.402;2022-09-03T08:55:30;7.15;;;5.15;;
64865;SDS011;51347;41.994;21.402;2022-09-03T08:58:02;6.90;;;3.75;;
64865;SDS011;51347;41.994;21.402;2022-09-03T09:22:21;9.80;;;5.13;;
64865;SDS011;51347;41.994;21.402;2022-09-03T09:24:50;8.73;;;5.00;;
64865;SDS011;51347;41.994;21.402;2022-09-03T09:27:17;9.90;;;5.13;;
64865;SDS011;51347;41.994;21.402;2022-09-03T09:29:45;6.65;;;4.43;;
64865;SDS011;51347;41.994;21.402;2022-09-03T09:32:11;11.88;;;5.15;;
64865;SDS011;51347;41.994;21.402;2022-09-03T09:34:38;8.00;;;4.97;;
64865;SDS011;51347;41.994;21.402;2022-09-03T09:37:07;8.65;;;4.57;;
64865;SDS011;51347;41.994;21.402;2022-09-03T09:39:53;5.85;;;4.38;;
64865;SDS011;51347;41.994;21.402;2022-09-03T09:42:28;7.60;;;4.32;;
64865;SDS011;51347;41.994;21.402;2022-09-03T09:45:18;6.90;;;3.80;;
64865;SDS011;51347;41.994;21.402;2022-09-03T09:47:43;5.00;;;3.63;;
64865;SDS011;51347;41.994;21.402;2022-09-03T09:50:16;4.97;;;3.38;;
64865;SDS011;51347;41.994;21.402;2022-09-03T09:52:45;4.43;;;3.53;;
64865;SDS011;51347;41.994;21.402;2022-09-03T09:55:15;7.32;;;3.67;;
64865;SDS011;51347;41.994;21.402;2022-09-03T09:57:41;5.40;;;3.15;;
64865;SDS011;51347;41.994;21.402;2022-09-03T10:00:08;7.25;;;4.63;;
64865;SDS011;51347;41.994;21.402;2022-09-03T10:02:38;4.18;;;3.10;;
64865;SDS011;51347;41.994;21.402;2022-09-03T10:05:14;7.53;;;3.92;;
64865;SDS011;51347;41.994;21.402;2022-09-03T10:07:40;5.07;;;3.38;;
64865;SDS011;51347;41.994;21.402;2022-09-03T10:10:09;5.18;;;3.65;;
64865;SDS011;51347;41.994;21.402;2022-09-03T10:12:43;3.53;;;3.10;;
64865;SDS011;51347;41.994;21.402;2022-09-03T10:15:27;4.45;;;3.40;;
64865;SDS011;51347;41.994;21.402;2022-09-03T10:20:27;7.13;;;3.35;;
64865;SDS011;51347;41.994;21.402;2022-09-03T10:25:25;3.92;;;3.53;;
64865;SDS011;51347;41.994;21.402;2022-09-03T10:27:51;5.10;;;3.55;;
64865;SDS011;51347;41.994;21.402;2022-09-03T10:30:18;4.10;;;3.28;;
64865;SDS011;51347;41.994;21.402;2022-09-03T10:35:28;5.18;;;3.13;;
64865;SDS011;51347;41.994;21.402;2022-09-03T10:38:04;4.18;;;3.03;;
64865;SDS011;51347;41.994;21.402;2022-09-03T10:40:39;7.10;;;3.20;;
64865;SDS011;51347;41.994;21.402;2022-09-03T10:45:41;5.38;;;3.67;;
64865;SDS011;51347;41.994;21.402;2022-09-03T10:53:38;4.60;;;3.25;;
64865;SDS011;51347;41.994;21.402;2022-09-03T10:56:09;7.50;;;3.28;;
64865;SDS011;51347;41.994;21.402;2022-09-03T10:58:40;4.97;;;2.90;;
64865;SDS011;51347;41.994;21.402;2022-09-03T11:01:15;3.88;;;3.10;;
64865;SDS011;51347;41.994;21.402;2022-09-03T11:03:47;4.38;;;3.10;;
64865;SDS011;51347;41.994;21.402;2022-09-03T11:08:43;3.97;;;3.47;;
64865;SDS011;51347;41.994;21.402;2022-09-03T11:11:13;5.43;;;3.45;;
64865;SDS011;51347;41.994;21.402;2022-09-03T11:13:43;3.22;;;2.92;;
64865;SDS011;51347;41.994;21.402;2022-09-03T11:16:16;4.20;;;3.30;;
64865;SDS011;51347;41.994;21.402;2022-09-03T11:18:54;3.80;;;3.20;;
64865;SDS011;51347;41.994;21.402;2022-09-03T11:21:23;4.28;;;2.95;;
64865;SDS011;51347;41.994;21.402;2022-09-03T11:27:01;4.80;;;3.17;;
64865;SDS011;51347;41.994;21.402;2022-09-03T11:35:15;4.30;;;2.72;;
64865;SDS011;51347;41.994;21.402;2022-09-03T11:37:46;4.20;;;2.65;;
64865;SDS011;51347;41.994;21.402;2022-09-03T11:40:14;2.63;;;2.40;;
64865;SDS011;51347;41.994;21.402;2022-09-03T11:42:45;3.55;;;2.05;;
64865;SDS011;51347;41.994;21.402;2022-09-03T11:45:22;4.10;;;2.22;;
64865;SDS011;51347;41.994;21.402;2022-09-03T11:47:47;2.95;;;2.10;;
64865;SDS011;51347;41.994;21.402;2022-09-03T11:50:21;4.13;;;2.58;;
64865;SDS011;51347;41.994;21.402;2022-09-03T11:52:51;3.47;;;2.30;;
64865;SDS011;51347;41.994;21.402;2022-09-03T11:55:30;4.70;;;2.47;;
64865;SDS011;51347;41.994;21.402;2022-09-03T11:57:57;3.53;;;2.10;;
64865;SDS011;51347;41.994;21.402;2022-09-03T12:00:22;5.20;;;3.00;;
64865;SDS011;51347;41.994;21.402;2022-09-03T12:02:54;4.72;;;2.70;;
64865;SDS011;51347;41.994;21.402;2022-09-03T12:05:26;6.03;;;3.05;;
64865;SDS011;51347;41.994;21.402;2022-09-03T12:10:52;7.18;;;2.90;;
64865;SDS011;51347;41.994;21.402;2022-09-03T12:13:24;5.20;;;2.88;;
64865;SDS011;51347;41.994;21.402;2022-09-03T12:15:58;6.45;;;3.22;;
64865;SDS011;51347;41.994;21.402;2022-09-03T12:18:28;4.82;;;3.20;;
64865;SDS011;51347;41.994;21.402;2022-09-03T12:25:52;3.22;;;2.53;;
64865;SDS011;51347;41.994;21.402;2022-09-03T12:28:18;2.58;;;2.30;;
64865;SDS011;51347;41.994;21.402;2022-09-03T12:30:48;7.93;;;3.15;;
64865;SDS011;51347;41.994;21.402;2022-09-03T12:33:16;4.68;;;2.92;;
64865;SDS011;51347;41.994;21.402;2022-09-03T12:35:41;6.32;;;3.00;;
64865;SDS011;51347;41.994;21.402;2022-09-03T12:38:07;6.35;;;3.90;;
64865;SDS011;51347;41.994;21.402;2022-09-03T12:40:32;6.72;;;3.13;;
64865;SDS011;51347;41.994;21.402;2022-09-03T12:43:13;5.38;;;2.78;;
64865;SDS011;51347;41.994;21.402;2022-09-03T12:45:46;4.25;;;2.70;;
64865;SDS011;51347;41.994;21.402;2022-09-03T12:48:14;5.25;;;3.15;;
64865;SDS011;51347;41.994;21.402;2022-09-03T12:50:40;6.70;;;2.70;;
64865;SDS011;51347;41.994;21.402;2022-09-03T12:53:06;3.08;;;2.47;;
64865;SDS011;51347;41.994;21.402;2022-09-03T12:58:07;4.78;;;2.65;;
64865;SDS011;51347;41.994;21.402;2022-09-03T13:00:35;5.07;;;2.53;;
64865;SDS011;51347;41.994;21.402;2022-09-03T13:03:04;7.00;;;3.63;;
64865;SDS011;51347;41.994;21.402;2022-09-03T13:05:35;5.13;;;2.67;;
64865;SDS011;51347;41.994;21.402;2022-09-03T13:08:04;3.40;;;2.83;;
64865;SDS011;51347;41.994;21.402;2022-09-03T13:10:32;3.28;;;2.67;;
64865;SDS011;51347;41.994;21.402;2022-09-03T13:13:00;5.82;;;3.05;;
64865;SDS011;51347;41.994;21.402;2022-09-03T13:15:26;6.22;;;3.10;;
64865;SDS011;51347;41.994;21.402;2022-09-03T13:23:30;6.55;;;3.05;;
64865;SDS011;51347;41.994;21.402;2022-09-03T13:34:14;3.40;;;2.22;;
64865;SDS011;51347;41.994;21.402;2022-09-03T13:36:19;3.15;;;2.17;;
64865;SDS011;51347;41.994;21.402;2022-09-03T13:38:49;2.90;;;2.15;;
64865;SDS011;51347;41.994;21.402;2022-09-03T13:41:35;2.80;;;1.90;;
64865;SDS011;51347;41.994;21.402;2022-09-03T13:44:35;5.07;;;2.40;;
64865;SDS011;51347;41.994;21.402;2022-09-03T13:49:53;3.00;;;2.40;;
64865;SDS011;51347;41.994;21.402;2022-09-03T13:55:35;3.40;;;2.35;;
64865;SDS011;51347;41.994;21.402;2022-09-03T13:58:23;3.92;;;2.60;;
64865;SDS011;51347;41.994;21.402;2022-09-03T14:03:42;3.63;;;2.45;;
64865;SDS011;51347;41.994;21.402;2022-09-03T14:06:10;2.63;;;2.00;;
64865;SDS011;51347;41.994;21.402;2022-09-03T14:08:44;3.77;;;2.80;;
64865;SDS011;51347;41.994;21.402;2022-09-03T14:19:00;6.65;;;2.95;;
64865;SDS011;51347;41.994;21.402;2022-09-03T14:22:10;3.17;;;2.50;;
64865;SDS011;51347;41.994;21.402;2022-09-03T14:27:08;4.10;;;3.50;;
64865;SDS011;51347;41.994;21.402;2022-09-03T14:29:33;4.72;;;3.10;;
64865;SDS011;51347;41.994;21.402;2022-09-03T14:37:39;3.80;;;2.83;;
64865;SDS011;51347;41.994;21.402;2022-09-03T14:52:55;3.78;;;2.63;;
64865;SDS011;51347;41.994;21.402;2022-09-03T15:05:41;3.08;;;2.65;;
64865;SDS011;51347;41.994;21.402;2022-09-03T15:08:08;3.05;;;2.45;;
64865;SDS011;51347;41.994;21.402;2022-09-03T15:10:44;2.80;;;2.40;;
64865;SDS011;51347;41.994;21.402;2022-09-03T15:23:47;2.90;;;2.33;;
64865;SDS011;51347;41.994;21.402;2022-09-03T15:36:58;6.03;;;3.17;;
64865;SDS011;51347;41.994;21.402;2022-09-03T15:39:29;7.75;;;2.97;;
64865;SDS011;51347;41.994;21.402;2022-09-03T15:42:14;3.35;;;3.05;;
64865;SDS011;51347;41.994;21.402;2022-09-03T15:44:45;4.85;;;2.97;;
64865;SDS011;51347;41.994;21.402;2022-09-03T15:47:12;4.20;;;3.20;;
64865;SDS011;51347;41.994;21.402;2022-09-03T15:50:01;4.63;;;3.13;;
64865;SDS011;51347;41.994;21.402;2022-09-03T16:00:11;8.88;;;3.80;;
64865;SDS011;51347;41.994;21.402;2022-09-03T16:02:39;4.35;;;2.90;;
64865;SDS011;51347;41.994;21.402;2022-09-03T16:05:11;4.45;;;3.25;;
64865;SDS011;51347;41.994;21.402;2022-09-03T16:10:21;3.25;;;2.60;;
64865;SDS011;51347;41.994;21.402;2022-09-03T16:15:46;4.40;;;3.28;;
64865;SDS011;51347;41.994;21.402;2022-09-03T16:18:13;4.60;;;2.85;;
64865;SDS011;51347;41.994;21.402;2022-09-03T16:21:28;5.20;;;3.17;;
64865;SDS011;51347;41.994;21.402;2022-09-03T16:23:51;3.47;;;3.00;;
64865;SDS011;51347;41.994;21.402;2022-09-03T16:26:19;3.95;;;2.70;;
64865;SDS011;51347;41.994;21.402;2022-09-03T16:28:51;5.60;;;3.25;;
64865;SDS011;51347;41.994;21.402;2022-09-03T16:31:36;7.40;;;2.95;;
64865;SDS011;51347;41.994;21.402;2022-09-03T16:34:15;5.35;;;3.30;;
64865;SDS011;51347;41.994;21.402;2022-09-03T16:39:25;3.97;;;2.70;;
64865;SDS011;51347;41.994;21.402;2022-09-03T16:42:00;5.78;;;3.20;;
64865;SDS011;51347;41.994;21.402;2022-09-03T16:44:34;4.22;;;3.00;;
64865;SDS011;51347;41.994;21.402;2022-09-03T16:57:31;7.32;;;3.63;;
64865;SDS011;51347;41.994;21.402;2022-09-03T17:10:20;5.70;;;3.45;;
64865;SDS011;51347;41.994;21.402;2022-09-03T17:25:00;9.80;;;3.97;;
64865;SDS011;51347;41.994;21.402;2022-09-03T17:27:34;6.97;;;3.70;;
64865;SDS011;51347;41.994;21.402;2022-09-03T17:35:37;5.82;;;3.30;;
64865;SDS011;51347;41.994;21.402;2022-09-03T17:43:14;3.63;;;3.30;;
64865;SDS011;51347;41.994;21.402;2022-09-03T17:51:14;6.40;;;3.88;;
64865;SDS011;51347;41.994;21.402;2022-09-03T17:56:05;9.50;;;4.97;;
64865;SDS011;51347;41.994;21.402;2022-09-03T17:58:35;6.65;;;4.45;;
64865;SDS011;51347;41.994;21.402;2022-09-03T18:06:10;7.72;;;4.50;;
64865;SDS011;51347;41.994;21.402;2022-09-03T18:08:45;7.28;;;4.28;;
64865;SDS011;51347;41.994;21.402;2022-09-03T18:16:28;6.20;;;3.88;;
64865;SDS011;51347;41.994;21.402;2022-09-03T18:19:03;9.68;;;4.95;;
64865;SDS011;51347;41.994;21.402;2022-09-03T18:21:33;8.68;;;4.65;;
64865;SDS011;51347;41.994;21.402;2022-09-03T18:24:29;6.97;;;4.13;;
64865;SDS011;51347;41.994;21.402;2022-09-03T18:27:16;7.10;;;4.38;;
64865;SDS011;51347;41.994;21.402;2022-09-03T18:30:10;6.22;;;4.40;;
64865;SDS011;51347;41.994;21.402;2022-09-03T18:32:55;6.18;;;4.45;;
64865;SDS011;51347;41.994;21.402;2022-09-03T18:35:39;7.55;;;4.18;;
64865;SDS011;51347;41.994;21.402;2022-09-03T18:38:26;4.60;;;4.00;;
64865;SDS011;51347;41.994;21.402;2022-09-03T18:46:58;5.53;;;4.55;;
64865;SDS011;51347;41.994;21.402;2022-09-03T18:52:54;9.43;;;4.95;;
64865;SDS011;51347;41.994;21.402;2022-09-03T18:55:45;5.38;;;4.43;;
64865;SDS011;51347;41.994;21.402;2022-09-03T19:04:06;7.88;;;4.93;;
64865;SDS011;51347;41.994;21.402;2022-09-03T19:15:38;5.82;;;4.60;;
64865;SDS011;51347;41.994;21.402;2022-09-03T19:21:45;11.40;;;6.75;;
64865;SDS011;51347;41.994;21.402;2022-09-03T19:24:31;8.18;;;5.18;;
64865;SDS011;51347;41.994;21.402;2022-09-03T19:30:26;5.07;;;4.00;;
64865;SDS011;51347;41.994;21.402;2022-09-03T19:39:06;6.93;;;4.38;;
64865;SDS011;51347;41.994;21.402;2022-09-03T19:47:50;14.98;;;6.85;;
64865;SDS011;51347;41.994;21.402;2022-09-03T19:50:40;6.78;;;4.28;;
64865;SDS011;51347;41.994;21.402;2022-09-03T19:53:25;5.75;;;4.30;;
64865;SDS011;51347;41.994;21.402;2022-09-03T19:56:12;5.20;;;4.30;;
64865;SDS011;51347;41.994;21.402;2022-09-03T19:58:59;7.35;;;5.40;;
64865;SDS011;51347;41.994;21.402;2022-09-03T20:01:43;7.20;;;5.15;;
64865;SDS011;51347;41.994;21.402;2022-09-03T20:04:32;9.32;;;4.72;;
64865;SDS011;51347;41.994;21.402;2022-09-03T20:07:17;9.90;;;5.38;;
64865;SDS011;51347;41.994;21.402;2022-09-03T20:10:03;6.47;;;4.70;;
64865;SDS011;51347;41.994;21.402;2022-09-03T20:12:52;5.50;;;4.50;;
64865;SDS011;51347;41.994;21.402;2022-09-03T20:15:20;9.35;;;4.68;;
64865;SDS011;51347;41.994;21.402;2022-09-03T20:23:01;8.07;;;4.75;;
64865;SDS011;51347;41.994;21.402;2022-09-03T20:33:42;7.35;;;5.18;;